sensor_id;sensor_type;location;lat;lon;timestamp;P1;durP1;ratioP1;P2;durP2;ratioP2
75680;SDS011;64294;49.176;16.626;2022-12-19T00:01:55;68.43;;;21.90;;
75680;SDS011;64294;49.176;16.626;2022-12-19T00:04:20;68.18;;;19.67;;
75680;SDS011;64294;49.176;16.626;2022-12-19T00:06:45;74.55;;;20.08;;
75680;SDS011;64294;49.176;16.626;2022-12-19T00:09:11;73.80;;;20.88;;
75680;SDS011;64294;49.176;16.626;2022-12-19T00:11:37;74.13;;;21.00;;
75680;SDS011;64294;49.176;16.626;2022-12-19T00:14:03;62.20;;;20.33;;
75680;SDS011;64294;49.176;16.626;2022-12-19T00:16:29;75.35;;;22.35;;
75680;SDS011;64294;49.176;16.626;2022-12-19T00:18:55;74.22;;;21.85;;
75680;SDS011;64294;49.176;16.626;2022-12-19T00:21:23;85.25;;;20.73;;
75680;SDS011;64294;49.176;16.626;2022-12-19T00:23:50;80.05;;;22.00;;
75680;SDS011;64294;49.176;16.626;2022-12-19T00:26:21;79.55;;;21.25;;
75680;SDS011;64294;49.176;16.626;2022-12-19T00:28:50;79.97;;;21.92;;
75680;SDS011;64294;49.176;16.626;2022-12-19T00:31:17;78.53;;;20.35;;
75680;SDS011;64294;49.176;16.626;2022-12-19T00:33:44;65.55;;;19.98;;
75680;SDS011;64294;49.176;16.626;2022-12-19T00:36:10;68.63;;;21.10;;
75680;SDS011;64294;49.176;16.626;2022-12-19T00:38:42;69.60;;;18.92;;
75680;SDS011;64294;49.176;16.626;2022-12-19T00:41:09;71.75;;;20.50;;
75680;SDS011;64294;49.176;16.626;2022-12-19T00:43:45;78.32;;;19.65;;
75680;SDS011;64294;49.176;16.626;2022-12-19T00:46:12;64.75;;;19.88;;
75680;SDS011;64294;49.176;16.626;2022-12-19T00:48:39;61.47;;;19.00;;
75680;SDS011;64294;49.176;16.626;2022-12-19T00:51:06;62.25;;;19.48;;
75680;SDS011;64294;49.176;16.626;2022-12-19T00:53:35;61.67;;;18.98;;
75680;SDS011;64294;49.176;16.626;2022-12-19T00:56:05;61.65;;;18.63;;
75680;SDS011;64294;49.176;16.626;2022-12-19T00:58:34;69.28;;;19.40;;
75680;SDS011;64294;49.176;16.626;2022-12-19T01:01:04;62.15;;;19.40;;
75680;SDS011;64294;49.176;16.626;2022-12-19T01:03:33;63.92;;;20.05;;
75680;SDS011;64294;49.176;16.626;2022-12-19T01:05:58;65.35;;;20.60;;
75680;SDS011;64294;49.176;16.626;2022-12-19T01:08:24;74.03;;;20.60;;
75680;SDS011;64294;49.176;16.626;2022-12-19T01:10:49;64.47;;;19.45;;
75680;SDS011;64294;49.176;16.626;2022-12-19T01:13:16;66.53;;;20.27;;
75680;SDS011;64294;49.176;16.626;2022-12-19T01:15:43;65.22;;;19.50;;
75680;SDS011;64294;49.176;16.626;2022-12-19T01:18:09;64.10;;;19.35;;
75680;SDS011;64294;49.176;16.626;2022-12-19T01:20:38;69.88;;;20.67;;
75680;SDS011;64294;49.176;16.626;2022-12-19T01:23:05;69.70;;;21.05;;
75680;SDS011;64294;49.176;16.626;2022-12-19T01:25:32;48.63;;;17.65;;
75680;SDS011;64294;49.176;16.626;2022-12-19T01:27:59;54.80;;;18.92;;
75680;SDS011;64294;49.176;16.626;2022-12-19T01:30:25;62.15;;;18.85;;
75680;SDS011;64294;49.176;16.626;2022-12-19T01:32:51;62.13;;;18.88;;
75680;SDS011;64294;49.176;16.626;2022-12-19T01:35:17;55.85;;;16.92;;
75680;SDS011;64294;49.176;16.626;2022-12-19T01:37:42;65.85;;;18.73;;
75680;SDS011;64294;49.176;16.626;2022-12-19T01:40:08;57.78;;;20.25;;
75680;SDS011;64294;49.176;16.626;2022-12-19T01:42:36;61.97;;;19.08;;
75680;SDS011;64294;49.176;16.626;2022-12-19T01:45:03;62.97;;;19.98;;
75680;SDS011;64294;49.176;16.626;2022-12-19T01:47:32;56.50;;;17.98;;
75680;SDS011;64294;49.176;16.626;2022-12-19T01:50:04;57.25;;;18.38;;
75680;SDS011;64294;49.176;16.626;2022-12-19T01:52:32;54.65;;;17.25;;
75680;SDS011;64294;49.176;16.626;2022-12-19T01:54:58;56.72;;;18.27;;
75680;SDS011;64294;49.176;16.626;2022-12-19T01:57:23;53.22;;;17.67;;
75680;SDS011;64294;49.176;16.626;2022-12-19T01:59:49;50.80;;;17.85;;
75680;SDS011;64294;49.176;16.626;2022-12-19T02:02:28;53.80;;;18.30;;
75680;SDS011;64294;49.176;16.626;2022-12-19T02:04:57;54.60;;;18.27;;
75680;SDS011;64294;49.176;16.626;2022-12-19T02:07:23;54.65;;;18.45;;
75680;SDS011;64294;49.176;16.626;2022-12-19T02:09:54;56.42;;;19.00;;
75680;SDS011;64294;49.176;16.626;2022-12-19T02:12:21;51.92;;;17.85;;
75680;SDS011;64294;49.176;16.626;2022-12-19T02:14:49;53.35;;;18.02;;
75680;SDS011;64294;49.176;16.626;2022-12-19T02:20:01;50.95;;;17.33;;
75680;SDS011;64294;49.176;16.626;2022-12-19T02:33:43;48.67;;;16.13;;
75680;SDS011;64294;49.176;16.626;2022-12-19T02:36:39;51.95;;;17.10;;
75680;SDS011;64294;49.176;16.626;2022-12-19T02:39:13;48.45;;;17.20;;
75680;SDS011;64294;49.176;16.626;2022-12-19T02:41:45;52.47;;;17.73;;
75680;SDS011;64294;49.176;16.626;2022-12-19T02:44:19;57.70;;;17.50;;
75680;SDS011;64294;49.176;16.626;2022-12-19T02:46:49;50.22;;;18.10;;
75680;SDS011;64294;49.176;16.626;2022-12-19T02:49:16;49.35;;;17.83;;
75680;SDS011;64294;49.176;16.626;2022-12-19T02:51:41;51.85;;;18.08;;
75680;SDS011;64294;49.176;16.626;2022-12-19T02:54:07;49.10;;;16.92;;
75680;SDS011;64294;49.176;16.626;2022-12-19T02:56:45;49.70;;;16.65;;
75680;SDS011;64294;49.176;16.626;2022-12-19T03:15:45;47.65;;;18.00;;
75680;SDS011;64294;49.176;16.626;2022-12-19T03:18:11;52.15;;;17.38;;
75680;SDS011;64294;49.176;16.626;2022-12-19T03:20:45;53.92;;;19.90;;
75680;SDS011;64294;49.176;16.626;2022-12-19T03:23:14;48.97;;;16.95;;
75680;SDS011;64294;49.176;16.626;2022-12-19T03:25:41;46.42;;;16.80;;
75680;SDS011;64294;49.176;16.626;2022-12-19T03:28:24;49.58;;;17.90;;
75680;SDS011;64294;49.176;16.626;2022-12-19T03:30:54;53.63;;;18.40;;
75680;SDS011;64294;49.176;16.626;2022-12-19T03:33:22;55.83;;;20.85;;
75680;SDS011;64294;49.176;16.626;2022-12-19T03:35:51;54.88;;;18.92;;
75680;SDS011;64294;49.176;16.626;2022-12-19T03:38:18;59.35;;;17.65;;
75680;SDS011;64294;49.176;16.626;2022-12-19T03:40:44;52.55;;;19.05;;
75680;SDS011;64294;49.176;16.626;2022-12-19T03:43:11;51.40;;;19.20;;
75680;SDS011;64294;49.176;16.626;2022-12-19T03:48:38;48.83;;;18.38;;
75680;SDS011;64294;49.176;16.626;2022-12-19T03:53:45;50.92;;;18.85;;
75680;SDS011;64294;49.176;16.626;2022-12-19T03:56:25;60.03;;;20.40;;
75680;SDS011;64294;49.176;16.626;2022-12-19T03:59:00;49.70;;;18.65;;
75680;SDS011;64294;49.176;16.626;2022-12-19T04:01:56;58.47;;;20.67;;
75680;SDS011;64294;49.176;16.626;2022-12-19T04:04:23;50.17;;;17.83;;
75680;SDS011;64294;49.176;16.626;2022-12-19T04:06:50;57.47;;;19.00;;
75680;SDS011;64294;49.176;16.626;2022-12-19T04:09:17;56.45;;;18.52;;
75680;SDS011;64294;49.176;16.626;2022-12-19T04:11:46;51.35;;;20.45;;
75680;SDS011;64294;49.176;16.626;2022-12-19T04:14:17;50.75;;;18.67;;
75680;SDS011;64294;49.176;16.626;2022-12-19T04:20:05;53.05;;;19.20;;
75680;SDS011;64294;49.176;16.626;2022-12-19T04:25:06;53.70;;;19.02;;
75680;SDS011;64294;49.176;16.626;2022-12-19T04:27:42;50.60;;;18.55;;
75680;SDS011;64294;49.176;16.626;2022-12-19T04:30:13;47.30;;;19.00;;
75680;SDS011;64294;49.176;16.626;2022-12-19T04:32:41;59.03;;;19.38;;
75680;SDS011;64294;49.176;16.626;2022-12-19T04:35:06;60.33;;;19.10;;
75680;SDS011;64294;49.176;16.626;2022-12-19T04:37:32;49.72;;;19.67;;
75680;SDS011;64294;49.176;16.626;2022-12-19T04:39:57;51.85;;;19.25;;
75680;SDS011;64294;49.176;16.626;2022-12-19T04:42:22;59.33;;;19.92;;
75680;SDS011;64294;49.176;16.626;2022-12-19T04:44:48;50.15;;;18.77;;
75680;SDS011;64294;49.176;16.626;2022-12-19T04:47:13;63.17;;;19.52;;
75680;SDS011;64294;49.176;16.626;2022-12-19T04:49:38;56.00;;;17.88;;
75680;SDS011;64294;49.176;16.626;2022-12-19T04:52:04;52.13;;;17.77;;
75680;SDS011;64294;49.176;16.626;2022-12-19T04:54:29;54.80;;;18.63;;
75680;SDS011;64294;49.176;16.626;2022-12-19T04:56:56;51.67;;;19.30;;
75680;SDS011;64294;49.176;16.626;2022-12-19T04:59:21;57.40;;;19.25;;
75680;SDS011;64294;49.176;16.626;2022-12-19T05:01:47;54.17;;;18.17;;
75680;SDS011;64294;49.176;16.626;2022-12-19T05:04:12;56.35;;;19.42;;
75680;SDS011;64294;49.176;16.626;2022-12-19T05:06:37;50.50;;;18.88;;
75680;SDS011;64294;49.176;16.626;2022-12-19T05:09:03;51.70;;;18.80;;
75680;SDS011;64294;49.176;16.626;2022-12-19T05:11:28;51.83;;;19.23;;
75680;SDS011;64294;49.176;16.626;2022-12-19T05:13:53;51.17;;;19.15;;
75680;SDS011;64294;49.176;16.626;2022-12-19T05:16:19;47.70;;;17.75;;
75680;SDS011;64294;49.176;16.626;2022-12-19T05:18:44;52.95;;;18.05;;
75680;SDS011;64294;49.176;16.626;2022-12-19T05:21:10;47.55;;;18.10;;
75680;SDS011;64294;49.176;16.626;2022-12-19T05:23:36;50.45;;;19.50;;
75680;SDS011;64294;49.176;16.626;2022-12-19T05:26:02;56.28;;;19.83;;
75680;SDS011;64294;49.176;16.626;2022-12-19T05:28:29;48.47;;;18.45;;
75680;SDS011;64294;49.176;16.626;2022-12-19T05:31:01;56.13;;;19.75;;
75680;SDS011;64294;49.176;16.626;2022-12-19T05:33:31;53.60;;;18.80;;
75680;SDS011;64294;49.176;16.626;2022-12-19T05:35:56;53.17;;;19.77;;
75680;SDS011;64294;49.176;16.626;2022-12-19T05:38:22;55.55;;;19.42;;
75680;SDS011;64294;49.176;16.626;2022-12-19T05:40:47;54.53;;;20.13;;
75680;SDS011;64294;49.176;16.626;2022-12-19T05:43:13;60.45;;;21.92;;
75680;SDS011;64294;49.176;16.626;2022-12-19T05:45:38;61.95;;;22.00;;
75680;SDS011;64294;49.176;16.626;2022-12-19T05:48:04;62.53;;;21.77;;
75680;SDS011;64294;49.176;16.626;2022-12-19T05:50:29;57.30;;;20.92;;
75680;SDS011;64294;49.176;16.626;2022-12-19T05:52:55;62.53;;;21.10;;
75680;SDS011;64294;49.176;16.626;2022-12-19T05:55:20;59.92;;;21.48;;
75680;SDS011;64294;49.176;16.626;2022-12-19T05:57:45;57.53;;;20.75;;
75680;SDS011;64294;49.176;16.626;2022-12-19T06:00:11;58.58;;;20.55;;
75680;SDS011;64294;49.176;16.626;2022-12-19T06:02:37;53.58;;;19.17;;
75680;SDS011;64294;49.176;16.626;2022-12-19T06:05:02;58.50;;;20.95;;
75680;SDS011;64294;49.176;16.626;2022-12-19T06:07:28;56.72;;;21.15;;
75680;SDS011;64294;49.176;16.626;2022-12-19T06:09:54;61.08;;;20.27;;
75680;SDS011;64294;49.176;16.626;2022-12-19T06:12:19;54.03;;;20.70;;
75680;SDS011;64294;49.176;16.626;2022-12-19T06:14:45;55.47;;;19.02;;
75680;SDS011;64294;49.176;16.626;2022-12-19T06:17:10;54.05;;;19.35;;
75680;SDS011;64294;49.176;16.626;2022-12-19T06:19:35;53.33;;;19.92;;
75680;SDS011;64294;49.176;16.626;2022-12-19T06:22:00;62.67;;;22.88;;
75680;SDS011;64294;49.176;16.626;2022-12-19T06:24:26;59.72;;;19.92;;
75680;SDS011;64294;49.176;16.626;2022-12-19T06:26:51;61.35;;;19.50;;
75680;SDS011;64294;49.176;16.626;2022-12-19T06:29:17;53.55;;;20.05;;
75680;SDS011;64294;49.176;16.626;2022-12-19T06:31:42;59.38;;;20.50;;
75680;SDS011;64294;49.176;16.626;2022-12-19T06:34:10;56.00;;;21.35;;
75680;SDS011;64294;49.176;16.626;2022-12-19T06:36:36;58.03;;;20.83;;
75680;SDS011;64294;49.176;16.626;2022-12-19T06:39:04;65.63;;;22.23;;
75680;SDS011;64294;49.176;16.626;2022-12-19T06:41:30;57.92;;;20.60;;
75680;SDS011;64294;49.176;16.626;2022-12-19T06:44:18;53.45;;;18.58;;
75680;SDS011;64294;49.176;16.626;2022-12-19T06:46:43;62.75;;;20.73;;
75680;SDS011;64294;49.176;16.626;2022-12-19T06:49:09;59.30;;;21.25;;
75680;SDS011;64294;49.176;16.626;2022-12-19T06:51:35;59.28;;;21.52;;
75680;SDS011;64294;49.176;16.626;2022-12-19T06:54:01;59.95;;;21.40;;
75680;SDS011;64294;49.176;16.626;2022-12-19T06:56:26;56.25;;;19.30;;
75680;SDS011;64294;49.176;16.626;2022-12-19T06:58:52;56.47;;;19.33;;
75680;SDS011;64294;49.176;16.626;2022-12-19T07:01:18;52.33;;;19.67;;
75680;SDS011;64294;49.176;16.626;2022-12-19T07:03:45;49.40;;;18.75;;
75680;SDS011;64294;49.176;16.626;2022-12-19T07:06:12;52.78;;;19.85;;
75680;SDS011;64294;49.176;16.626;2022-12-19T07:08:37;55.83;;;19.63;;
75680;SDS011;64294;49.176;16.626;2022-12-19T07:11:03;55.28;;;20.13;;
75680;SDS011;64294;49.176;16.626;2022-12-19T07:13:28;48.05;;;20.30;;
75680;SDS011;64294;49.176;16.626;2022-12-19T07:15:55;56.53;;;19.17;;
75680;SDS011;64294;49.176;16.626;2022-12-19T07:18:23;50.20;;;18.70;;
75680;SDS011;64294;49.176;16.626;2022-12-19T07:20:49;49.13;;;18.35;;
75680;SDS011;64294;49.176;16.626;2022-12-19T07:23:15;51.08;;;20.08;;
75680;SDS011;64294;49.176;16.626;2022-12-19T07:25:43;49.03;;;18.33;;
75680;SDS011;64294;49.176;16.626;2022-12-19T07:28:09;43.95;;;17.20;;
75680;SDS011;64294;49.176;16.626;2022-12-19T07:30:34;44.38;;;18.20;;
75680;SDS011;64294;49.176;16.626;2022-12-19T07:33:01;39.78;;;16.58;;
75680;SDS011;64294;49.176;16.626;2022-12-19T07:35:27;46.00;;;16.98;;
75680;SDS011;64294;49.176;16.626;2022-12-19T07:37:52;43.03;;;17.75;;
75680;SDS011;64294;49.176;16.626;2022-12-19T07:40:17;43.58;;;17.55;;
75680;SDS011;64294;49.176;16.626;2022-12-19T07:42:43;41.85;;;16.75;;
75680;SDS011;64294;49.176;16.626;2022-12-19T07:45:09;45.40;;;18.33;;
75680;SDS011;64294;49.176;16.626;2022-12-19T07:47:36;39.75;;;16.77;;
75680;SDS011;64294;49.176;16.626;2022-12-19T07:50:01;45.45;;;18.23;;
75680;SDS011;64294;49.176;16.626;2022-12-19T07:52:26;44.63;;;18.65;;
75680;SDS011;64294;49.176;16.626;2022-12-19T07:54:52;42.17;;;16.58;;
75680;SDS011;64294;49.176;16.626;2022-12-19T07:57:18;44.22;;;17.98;;
75680;SDS011;64294;49.176;16.626;2022-12-19T07:59:43;43.92;;;17.33;;
75680;SDS011;64294;49.176;16.626;2022-12-19T08:02:09;47.55;;;19.38;;
75680;SDS011;64294;49.176;16.626;2022-12-19T08:04:34;40.55;;;17.33;;
75680;SDS011;64294;49.176;16.626;2022-12-19T08:07:00;46.38;;;17.50;;
75680;SDS011;64294;49.176;16.626;2022-12-19T08:09:26;43.00;;;17.27;;
75680;SDS011;64294;49.176;16.626;2022-12-19T08:11:52;44.40;;;18.35;;
75680;SDS011;64294;49.176;16.626;2022-12-19T08:14:18;41.45;;;18.05;;
75680;SDS011;64294;49.176;16.626;2022-12-19T08:16:43;42.00;;;17.75;;
75680;SDS011;64294;49.176;16.626;2022-12-19T08:19:08;41.83;;;18.75;;
75680;SDS011;64294;49.176;16.626;2022-12-19T08:21:34;43.17;;;18.00;;
75680;SDS011;64294;49.176;16.626;2022-12-19T08:23:59;44.40;;;18.48;;
75680;SDS011;64294;49.176;16.626;2022-12-19T08:26:25;40.17;;;16.67;;
75680;SDS011;64294;49.176;16.626;2022-12-19T08:28:51;45.60;;;19.83;;
75680;SDS011;64294;49.176;16.626;2022-12-19T08:31:17;46.03;;;20.27;;
75680;SDS011;64294;49.176;16.626;2022-12-19T08:33:44;43.05;;;18.17;;
75680;SDS011;64294;49.176;16.626;2022-12-19T08:36:12;47.85;;;18.67;;
75680;SDS011;64294;49.176;16.626;2022-12-19T08:38:39;48.08;;;18.48;;
75680;SDS011;64294;49.176;16.626;2022-12-19T08:41:05;52.97;;;19.63;;
75680;SDS011;64294;49.176;16.626;2022-12-19T08:43:31;48.35;;;19.02;;
75680;SDS011;64294;49.176;16.626;2022-12-19T08:45:57;46.63;;;19.95;;
75680;SDS011;64294;49.176;16.626;2022-12-19T08:48:22;48.63;;;19.38;;
75680;SDS011;64294;49.176;16.626;2022-12-19T08:50:52;51.58;;;19.20;;
75680;SDS011;64294;49.176;16.626;2022-12-19T08:53:20;48.92;;;19.88;;
75680;SDS011;64294;49.176;16.626;2022-12-19T08:55:46;49.63;;;21.27;;
75680;SDS011;64294;49.176;16.626;2022-12-19T08:58:12;39.05;;;16.13;;
75680;SDS011;64294;49.176;16.626;2022-12-19T09:00:38;46.47;;;19.73;;
75680;SDS011;64294;49.176;16.626;2022-12-19T09:03:03;45.28;;;19.02;;
75680;SDS011;64294;49.176;16.626;2022-12-19T09:05:29;47.17;;;18.15;;
75680;SDS011;64294;49.176;16.626;2022-12-19T09:07:54;46.08;;;17.50;;
75680;SDS011;64294;49.176;16.626;2022-12-19T09:10:20;50.22;;;20.33;;
75680;SDS011;64294;49.176;16.626;2022-12-19T09:12:45;49.60;;;20.25;;
75680;SDS011;64294;49.176;16.626;2022-12-19T09:15:11;49.45;;;18.75;;
75680;SDS011;64294;49.176;16.626;2022-12-19T09:17:36;51.20;;;19.58;;
75680;SDS011;64294;49.176;16.626;2022-12-19T09:20:02;43.33;;;16.77;;
75680;SDS011;64294;49.176;16.626;2022-12-19T09:22:27;45.10;;;19.17;;
75680;SDS011;64294;49.176;16.626;2022-12-19T09:24:53;44.20;;;17.75;;
75680;SDS011;64294;49.176;16.626;2022-12-19T09:27:19;41.78;;;17.42;;
75680;SDS011;64294;49.176;16.626;2022-12-19T09:29:44;44.30;;;15.98;;
75680;SDS011;64294;49.176;16.626;2022-12-19T09:32:09;42.67;;;16.50;;
75680;SDS011;64294;49.176;16.626;2022-12-19T09:34:35;45.22;;;17.17;;
75680;SDS011;64294;49.176;16.626;2022-12-19T09:37:01;42.33;;;15.93;;
75680;SDS011;64294;49.176;16.626;2022-12-19T09:39:26;29.52;;;11.68;;
75680;SDS011;64294;49.176;16.626;2022-12-19T09:46:59;48.25;;;16.48;;
75680;SDS011;64294;49.176;16.626;2022-12-19T09:49:35;48.22;;;17.95;;
75680;SDS011;64294;49.176;16.626;2022-12-19T10:00:11;55.38;;;17.83;;
75680;SDS011;64294;49.176;16.626;2022-12-19T10:05:29;45.72;;;18.25;;
75680;SDS011;64294;49.176;16.626;2022-12-19T10:07:59;41.17;;;16.60;;
75680;SDS011;64294;49.176;16.626;2022-12-19T10:19:05;41.70;;;16.48;;
75680;SDS011;64294;49.176;16.626;2022-12-19T10:21:51;37.95;;;14.75;;
75680;SDS011;64294;49.176;16.626;2022-12-19T10:27:33;42.40;;;16.30;;
75680;SDS011;64294;49.176;16.626;2022-12-19T10:30:12;47.03;;;17.33;;
75680;SDS011;64294;49.176;16.626;2022-12-19T10:35:40;47.72;;;17.60;;
75680;SDS011;64294;49.176;16.626;2022-12-19T10:38:12;34.63;;;15.15;;
75680;SDS011;64294;49.176;16.626;2022-12-19T10:40:51;52.38;;;16.17;;
75680;SDS011;64294;49.176;16.626;2022-12-19T10:44:01;28.75;;;12.02;;
75680;SDS011;64294;49.176;16.626;2022-12-19T10:46:27;31.10;;;13.27;;
75680;SDS011;64294;49.176;16.626;2022-12-19T10:48:55;38.75;;;15.43;;
75680;SDS011;64294;49.176;16.626;2022-12-19T10:51:22;49.40;;;16.52;;
75680;SDS011;64294;49.176;16.626;2022-12-19T10:53:54;53.35;;;16.90;;
75680;SDS011;64294;49.176;16.626;2022-12-19T10:56:30;49.00;;;15.80;;
75680;SDS011;64294;49.176;16.626;2022-12-19T10:58:56;56.90;;;17.52;;
75680;SDS011;64294;49.176;16.626;2022-12-19T11:01:23;37.70;;;14.85;;
75680;SDS011;64294;49.176;16.626;2022-12-19T11:04:11;48.05;;;15.95;;
75680;SDS011;64294;49.176;16.626;2022-12-19T11:06:42;51.17;;;16.00;;
75680;SDS011;64294;49.176;16.626;2022-12-19T11:09:19;46.75;;;16.02;;
75680;SDS011;64294;49.176;16.626;2022-12-19T11:14:32;40.88;;;14.65;;
75680;SDS011;64294;49.176;16.626;2022-12-19T11:16:59;54.78;;;15.00;;
75680;SDS011;64294;49.176;16.626;2022-12-19T11:22:04;36.03;;;13.55;;
75680;SDS011;64294;49.176;16.626;2022-12-19T11:24:35;50.17;;;15.10;;
75680;SDS011;64294;49.176;16.626;2022-12-19T11:29:56;40.80;;;14.68;;
75680;SDS011;64294;49.176;16.626;2022-12-19T11:32:39;44.50;;;15.15;;
75680;SDS011;64294;49.176;16.626;2022-12-19T11:35:14;52.63;;;15.23;;
75680;SDS011;64294;49.176;16.626;2022-12-19T11:43:10;41.95;;;15.32;;
75680;SDS011;64294;49.176;16.626;2022-12-19T11:45:42;43.33;;;15.68;;
75680;SDS011;64294;49.176;16.626;2022-12-19T11:48:16;38.08;;;14.70;;
75680;SDS011;64294;49.176;16.626;2022-12-19T11:50:55;36.15;;;13.40;;
75680;SDS011;64294;49.176;16.626;2022-12-19T11:53:32;37.97;;;14.65;;
75680;SDS011;64294;49.176;16.626;2022-12-19T11:56:13;37.13;;;15.77;;
75680;SDS011;64294;49.176;16.626;2022-12-19T11:58:47;42.72;;;15.90;;
75680;SDS011;64294;49.176;16.626;2022-12-19T12:04:26;41.45;;;15.70;;
75680;SDS011;64294;49.176;16.626;2022-12-19T12:07:14;41.20;;;16.25;;
75680;SDS011;64294;49.176;16.626;2022-12-19T12:09:43;36.97;;;14.95;;
75680;SDS011;64294;49.176;16.626;2022-12-19T12:12:26;39.88;;;16.38;;
75680;SDS011;64294;49.176;16.626;2022-12-19T12:18:00;38.88;;;15.43;;
75680;SDS011;64294;49.176;16.626;2022-12-19T12:20:47;42.03;;;15.90;;
75680;SDS011;64294;49.176;16.626;2022-12-19T12:23:28;44.15;;;16.17;;
75680;SDS011;64294;49.176;16.626;2022-12-19T12:26:29;44.38;;;15.70;;
75680;SDS011;64294;49.176;16.626;2022-12-19T12:29:08;37.67;;;16.08;;
75680;SDS011;64294;49.176;16.626;2022-12-19T12:31:45;39.58;;;15.38;;
75680;SDS011;64294;49.176;16.626;2022-12-19T12:44:46;32.85;;;13.75;;
75680;SDS011;64294;49.176;16.626;2022-12-19T12:47:25;38.35;;;13.43;;
75680;SDS011;64294;49.176;16.626;2022-12-19T12:49:55;37.88;;;14.13;;
75680;SDS011;64294;49.176;16.626;2022-12-19T12:52:28;32.35;;;14.20;;
75680;SDS011;64294;49.176;16.626;2022-12-19T12:55:01;37.00;;;13.00;;
75680;SDS011;64294;49.176;16.626;2022-12-19T13:02:38;40.85;;;13.52;;
75680;SDS011;64294;49.176;16.626;2022-12-19T13:05:14;31.77;;;11.70;;
75680;SDS011;64294;49.176;16.626;2022-12-19T13:07:50;35.53;;;13.43;;
75680;SDS011;64294;49.176;16.626;2022-12-19T13:10:20;35.75;;;14.30;;
75680;SDS011;64294;49.176;16.626;2022-12-19T13:19:27;41.97;;;15.52;;
75680;SDS011;64294;49.176;16.626;2022-12-19T13:35:02;36.65;;;13.45;;
75680;SDS011;64294;49.176;16.626;2022-12-19T13:43:18;33.92;;;12.95;;
75680;SDS011;64294;49.176;16.626;2022-12-19T13:51:44;39.00;;;14.52;;
75680;SDS011;64294;49.176;16.626;2022-12-19T13:54:26;51.90;;;15.10;;
75680;SDS011;64294;49.176;16.626;2022-12-19T13:56:53;37.63;;;14.38;;
75680;SDS011;64294;49.176;16.626;2022-12-19T13:59:22;36.60;;;15.00;;
75680;SDS011;64294;49.176;16.626;2022-12-19T14:01:51;40.05;;;15.55;;
75680;SDS011;64294;49.176;16.626;2022-12-19T14:04:27;33.40;;;13.75;;
75680;SDS011;64294;49.176;16.626;2022-12-19T14:07:03;38.00;;;15.25;;
75680;SDS011;64294;49.176;16.626;2022-12-19T14:09:31;42.33;;;14.38;;
75680;SDS011;64294;49.176;16.626;2022-12-19T14:12:01;42.85;;;15.25;;
75680;SDS011;64294;49.176;16.626;2022-12-19T14:14:28;33.63;;;13.98;;
75680;SDS011;64294;49.176;16.626;2022-12-19T14:17:14;34.05;;;12.20;;
75680;SDS011;64294;49.176;16.626;2022-12-19T14:19:43;35.83;;;14.02;;
75680;SDS011;64294;49.176;16.626;2022-12-19T14:22:22;43.85;;;14.75;;
75680;SDS011;64294;49.176;16.626;2022-12-19T14:24:56;39.72;;;15.75;;
75680;SDS011;64294;49.176;16.626;2022-12-19T14:27:26;41.08;;;13.30;;
75680;SDS011;64294;49.176;16.626;2022-12-19T14:29:52;28.83;;;10.32;;
75680;SDS011;64294;49.176;16.626;2022-12-19T14:32:18;36.40;;;13.68;;
75680;SDS011;64294;49.176;16.626;2022-12-19T14:34:45;50.08;;;15.15;;
75680;SDS011;64294;49.176;16.626;2022-12-19T14:37:29;42.00;;;14.52;;
75680;SDS011;64294;49.176;16.626;2022-12-19T14:39:57;38.85;;;14.13;;
75680;SDS011;64294;49.176;16.626;2022-12-19T14:42:24;49.10;;;14.77;;
75680;SDS011;64294;49.176;16.626;2022-12-19T14:47:56;50.25;;;13.10;;
75680;SDS011;64294;49.176;16.626;2022-12-19T14:50:34;48.20;;;14.57;;
75680;SDS011;64294;49.176;16.626;2022-12-19T14:53:08;42.42;;;14.55;;
75680;SDS011;64294;49.176;16.626;2022-12-19T14:55:41;41.20;;;14.73;;
75680;SDS011;64294;49.176;16.626;2022-12-19T14:58:07;34.15;;;14.50;;
75680;SDS011;64294;49.176;16.626;2022-12-19T15:00:42;35.80;;;14.18;;
75680;SDS011;64294;49.176;16.626;2022-12-19T15:03:14;37.63;;;15.05;;
75680;SDS011;64294;49.176;16.626;2022-12-19T15:05:52;29.80;;;12.63;;
75680;SDS011;64294;49.176;16.626;2022-12-19T15:08:29;38.20;;;14.65;;
75680;SDS011;64294;49.176;16.626;2022-12-19T15:11:01;37.05;;;13.70;;
75680;SDS011;64294;49.176;16.626;2022-12-19T15:13:57;37.47;;;14.13;;
75680;SDS011;64294;49.176;16.626;2022-12-19T15:16:29;38.58;;;14.50;;
75680;SDS011;64294;49.176;16.626;2022-12-19T15:18:56;35.58;;;14.85;;
75680;SDS011;64294;49.176;16.626;2022-12-19T15:21:24;34.20;;;13.90;;
75680;SDS011;64294;49.176;16.626;2022-12-19T15:23:50;32.65;;;14.25;;
75680;SDS011;64294;49.176;16.626;2022-12-19T15:26:17;37.25;;;15.52;;
75680;SDS011;64294;49.176;16.626;2022-12-19T15:28:54;32.55;;;13.85;;
75680;SDS011;64294;49.176;16.626;2022-12-19T15:33:56;38.22;;;15.23;;
75680;SDS011;64294;49.176;16.626;2022-12-19T15:36:22;37.50;;;16.38;;
75680;SDS011;64294;49.176;16.626;2022-12-19T15:38:47;39.28;;;15.30;;
75680;SDS011;64294;49.176;16.626;2022-12-19T15:41:15;39.25;;;15.82;;
75680;SDS011;64294;49.176;16.626;2022-12-19T15:43:44;38.78;;;15.85;;
75680;SDS011;64294;49.176;16.626;2022-12-19T15:46:09;40.38;;;16.17;;
75680;SDS011;64294;49.176;16.626;2022-12-19T15:48:36;41.17;;;15.45;;
75680;SDS011;64294;49.176;16.626;2022-12-19T15:51:10;42.95;;;16.50;;
75680;SDS011;64294;49.176;16.626;2022-12-19T15:53:37;37.85;;;16.17;;
75680;SDS011;64294;49.176;16.626;2022-12-19T15:56:02;39.17;;;15.02;;
75680;SDS011;64294;49.176;16.626;2022-12-19T15:58:29;36.85;;;14.77;;
75680;SDS011;64294;49.176;16.626;2022-12-19T16:00:58;37.38;;;14.80;;
75680;SDS011;64294;49.176;16.626;2022-12-19T16:03:26;43.95;;;16.25;;
75680;SDS011;64294;49.176;16.626;2022-12-19T16:05:52;51.55;;;17.17;;
75680;SDS011;64294;49.176;16.626;2022-12-19T16:08:19;38.38;;;14.77;;
75680;SDS011;64294;49.176;16.626;2022-12-19T16:10:48;38.90;;;15.90;;
75680;SDS011;64294;49.176;16.626;2022-12-19T16:13:24;36.45;;;15.07;;
75680;SDS011;64294;49.176;16.626;2022-12-19T16:15:52;42.05;;;15.40;;
75680;SDS011;64294;49.176;16.626;2022-12-19T16:18:19;44.08;;;15.50;;
75680;SDS011;64294;49.176;16.626;2022-12-19T16:20:45;35.60;;;14.77;;
75680;SDS011;64294;49.176;16.626;2022-12-19T16:23:11;40.47;;;15.43;;
75680;SDS011;64294;49.176;16.626;2022-12-19T16:25:38;45.03;;;17.52;;
75680;SDS011;64294;49.176;16.626;2022-12-19T16:31:11;43.90;;;16.55;;
75680;SDS011;64294;49.176;16.626;2022-12-19T16:33:39;42.72;;;17.55;;
75680;SDS011;64294;49.176;16.626;2022-12-19T16:36:04;48.67;;;18.73;;
75680;SDS011;64294;49.176;16.626;2022-12-19T16:38:30;47.58;;;19.27;;
75680;SDS011;64294;49.176;16.626;2022-12-19T16:40:55;42.88;;;18.23;;
75680;SDS011;64294;49.176;16.626;2022-12-19T16:45:54;49.75;;;19.27;;
75680;SDS011;64294;49.176;16.626;2022-12-19T16:48:21;65.63;;;23.95;;
75680;SDS011;64294;49.176;16.626;2022-12-19T16:50:48;65.53;;;24.30;;